createdAt,value
2023-04-19T00:00:44.544Z,61.27
2023-04-19T00:03:14.529Z,60.04
2023-04-19T00:05:43.059Z,60.74
2023-04-19T00:08:12.712Z,60.43
2023-04-19T00:10:40.942Z,63.01
2023-04-19T00:13:09.223Z,61.28
2023-04-19T00:15:38.619Z,60.90
2023-04-19T00:18:07.273Z,61.31
2023-04-19T00:20:35.557Z,61.36
2023-04-19T00:23:03.806Z,61.77
2023-04-19T00:25:34.847Z,61.76
2023-04-19T00:28:03.873Z,60.54
2023-04-19T00:30:32.336Z,59.72
2023-04-19T00:33:00.589Z,66.06
2023-04-19T00:35:28.980Z,61.62
2023-04-19T00:37:57.377Z,62.02
2023-04-19T00:40:25.686Z,64.31
2023-04-19T00:42:55.283Z,64.79
2023-04-19T00:45:23.549Z,62.30
2023-04-19T00:47:52.118Z,63.23
2023-04-19T00:50:20.461Z,62.43
2023-04-19T00:52:48.952Z,66.02
2023-04-19T00:55:17.347Z,67.89
2023-04-19T00:57:45.835Z,67.53
2023-04-19T01:00:16.277Z,64.12
2023-04-19T01:02:44.610Z,64.34
2023-04-19T01:05:13.125Z,63.93
2023-04-19T01:07:41.396Z,64.02
2023-04-19T01:10:10.053Z,66.61
2023-04-19T01:12:38.443Z,66.56
2023-04-19T01:15:08.004Z,73.58
2023-04-19T01:17:38.683Z,73.31
2023-04-19T01:20:08.101Z,70.78
2023-04-19T01:22:38.660Z,73.04
2023-04-19T01:25:07.186Z,69.95
2023-04-19T01:27:35.615Z,68.34
2023-04-19T01:30:03.960Z,69.96
2023-04-19T01:32:32.292Z,70.49
2023-04-19T01:35:00.586Z,70.28
2023-04-19T01:37:28.862Z,68.75
2023-04-19T01:39:58.538Z,67.76
2023-04-19T01:42:27.248Z,68.37
2023-04-19T01:44:55.587Z,66.68
2023-04-19T01:47:25.092Z,68.73
2023-04-19T01:49:53.447Z,67.45
2023-04-19T01:52:21.788Z,67.11
2023-04-19T01:54:50.075Z,66.00
2023-04-19T01:57:19.875Z,65.63
2023-04-19T01:59:50.256Z,64.28
2023-04-19T02:02:18.724Z,64.49
2023-04-19T02:04:47.261Z,64.59
2023-04-19T02:07:15.547Z,63.86
2023-04-19T02:09:43.811Z,63.48
2023-04-19T02:12:12.139Z,62.96
2023-04-19T02:14:42.110Z,62.47
2023-04-19T02:17:10.346Z,62.42
2023-04-19T02:19:38.541Z,62.18
2023-04-19T02:22:06.796Z,62.23
2023-04-19T02:24:35.256Z,61.92
2023-04-19T02:27:03.559Z,63.98
2023-04-19T02:29:31.864Z,63.36
2023-04-19T02:32:03.949Z,63.55
2023-04-19T02:34:32.240Z,64.36
2023-04-19T02:37:00.555Z,65.31
2023-04-19T02:39:28.920Z,64.69
2023-04-19T02:41:57.381Z,64.73
2023-04-19T02:44:25.717Z,65.77
2023-04-19T02:46:54.429Z,66.37
2023-04-19T02:49:24.221Z,65.94
2023-04-19T02:52:03.470Z,66.34
2023-04-19T02:54:38.334Z,66.28
2023-04-19T02:57:11.931Z,66.58
2023-04-19T02:59:46.216Z,68.86
2023-04-19T03:02:22.278Z,68.29
2023-04-19T03:04:58.096Z,67.85
2023-04-19T03:07:31.721Z,66.78
2023-04-19T03:09:59.992Z,67.20
2023-04-19T03:12:28.245Z,68.92
2023-04-19T03:14:56.501Z,71.19
2023-04-19T03:17:24.807Z,70.78
2023-04-19T03:19:53.351Z,69.48
2023-04-19T03:22:23.001Z,70.12
2023-04-19T03:24:51.272Z,69.87
2023-04-19T03:27:19.559Z,71.02
2023-04-19T03:29:48.974Z,69.40
2023-04-19T03:32:17.393Z,68.63
2023-04-19T03:34:46.206Z,67.97
2023-04-19T03:37:14.482Z,66.81
2023-04-19T03:39:44.115Z,67.88
2023-04-19T03:42:12.388Z,67.05
2023-04-19T03:44:40.681Z,68.22
2023-04-19T03:47:09.030Z,69.65
2023-04-19T03:49:37.403Z,68.83
2023-04-19T03:52:06.318Z,70.28
2023-04-19T03:54:34.606Z,67.67
2023-04-19T03:57:04.368Z,65.85
2023-04-19T03:59:32.770Z,68.09
2023-04-19T04:02:01.240Z,67.42
2023-04-19T04:04:29.893Z,70.40
2023-04-19T04:06:58.298Z,67.71
2023-04-19T04:09:26.567Z,66.72
2023-04-19T04:11:54.960Z,66.58
2023-04-19T04:14:25.128Z,70.07
2023-04-19T04:16:53.444Z,67.29
2023-04-19T04:19:22.089Z,64.37
2023-04-19T04:21:50.415Z,65.95
2023-04-19T04:24:20.205Z,67.21
2023-04-19T04:26:50.452Z,64.85
2023-04-19T04:29:19.212Z,62.85
2023-04-19T04:31:48.859Z,62.14
2023-04-19T04:34:17.558Z,60.68
2023-04-19T04:36:47.451Z,59.82
2023-04-19T04:39:15.776Z,60.86
2023-04-19T04:41:44.060Z,60.97
2023-04-19T04:44:22.627Z,63.99
2023-04-19T04:46:52.334Z,66.90
2023-04-19T04:49:20.811Z,68.64
2023-04-19T04:51:49.064Z,68.11
2023-04-19T04:54:17.543Z,67.59
2023-04-19T04:56:45.999Z,69.05
2023-04-19T04:59:14.340Z,68.85
2023-04-19T05:01:42.801Z,72.76
2023-04-19T05:04:12.628Z,69.82
2023-04-19T05:06:41.411Z,76.83
2023-04-19T05:09:09.719Z,76.89
2023-04-19T05:11:38.000Z,75.31
2023-04-19T05:14:06.301Z,68.36
2023-04-19T05:16:34.784Z,72.30
2023-04-19T05:19:03.009Z,73.35
2023-04-19T05:21:34.378Z,73.15
2023-04-19T05:24:02.974Z,74.21
2023-04-19T05:26:32.180Z,73.84
2023-04-19T05:29:00.458Z,76.00
2023-04-19T05:31:28.856Z,73.68
2023-04-19T05:33:57.096Z,74.44
2023-04-19T05:36:25.336Z,65.39
2023-04-19T05:38:54.956Z,62.86
2023-04-19T05:41:23.731Z,65.04
2023-04-19T05:43:52.057Z,63.77
2023-04-19T05:46:20.349Z,68.65
2023-04-19T05:48:48.667Z,63.99
2023-04-19T05:51:18.969Z,66.15
2023-04-19T05:53:47.235Z,67.48
2023-04-19T05:56:16.905Z,69.21
2023-04-19T05:58:45.198Z,70.75
2023-04-19T06:01:14.005Z,69.78
2023-04-19T06:03:42.524Z,72.70
2023-04-19T06:06:10.947Z,70.39
2023-04-19T06:08:39.311Z,70.84
2023-04-19T06:11:15.936Z,64.45
2023-04-19T06:13:54.442Z,63.55
2023-04-19T06:16:22.994Z,61.57
2023-04-19T06:18:51.337Z,60.44
2023-04-19T06:21:19.647Z,59.33
2023-04-19T06:23:47.912Z,58.36
2023-04-19T06:26:16.369Z,58.02
2023-04-19T06:28:44.625Z,57.76
2023-04-19T06:31:14.315Z,55.19
2023-04-19T06:33:42.570Z,53.84
2023-04-19T06:36:11.519Z,52.60
2023-04-19T06:38:41.376Z,52.24
2023-04-19T06:41:10.249Z,53.11
2023-04-19T06:43:39.509Z,51.65
2023-04-19T06:46:07.960Z,50.51
2023-04-19T06:48:37.668Z,49.96
2023-04-19T06:51:06.159Z,50.86
2023-04-19T06:53:34.742Z,50.51
2023-04-19T06:56:04.301Z,48.51
2023-04-19T06:58:34.960Z,49.00
2023-04-19T07:01:04.785Z,47.03
2023-04-19T07:03:33.779Z,44.69
2023-04-19T07:06:03.508Z,45.06
2023-04-19T07:08:48.269Z,45.81
2023-04-19T07:11:19.279Z,44.59
2023-04-19T07:13:48.341Z,43.79
2023-04-19T07:16:16.689Z,43.79
2023-04-19T07:18:45.058Z,43.94
2023-04-19T07:21:14.858Z,43.28
2023-04-19T07:23:43.182Z,42.71
2023-04-19T07:26:11.596Z,42.41
2023-04-19T07:28:40.665Z,41.28
2023-04-19T07:31:08.979Z,40.78
2023-04-19T07:33:37.192Z,42.15
2023-04-19T07:36:06.747Z,42.51
2023-04-19T07:38:36.375Z,42.50
2023-04-19T07:41:05.394Z,42.25
2023-04-19T07:43:33.933Z,42.21
2023-04-19T07:46:02.481Z,41.04
2023-04-19T07:48:30.836Z,41.11
2023-04-19T07:50:59.163Z,41.93
2023-04-19T07:53:27.584Z,41.09
2023-04-19T07:55:57.213Z,39.66
2023-04-19T07:58:26.804Z,39.96
2023-04-19T08:00:55.078Z,39.13
2023-04-19T08:03:23.622Z,38.40
2023-04-19T08:05:52.234Z,37.94
2023-04-19T08:08:20.654Z,38.46
2023-04-19T08:10:48.996Z,38.87
2023-04-19T08:13:18.575Z,39.97
2023-04-19T08:18:18.013Z,42.71
2023-04-19T08:20:47.213Z,44.11
2023-04-19T08:23:22.707Z,45.20
2023-04-19T08:25:52.791Z,44.94
2023-04-19T08:28:22.466Z,42.92
2023-04-19T08:30:50.871Z,42.70
2023-04-19T08:33:19.185Z,43.29
2023-04-19T08:35:47.410Z,40.77
2023-04-19T08:38:15.702Z,40.53
2023-04-19T08:40:47.663Z,40.12
2023-04-19T08:43:16.646Z,40.98
2023-04-19T08:45:47.607Z,40.92
2023-04-19T08:48:16.851Z,40.94
2023-04-19T08:51:00.659Z,42.70
2023-04-19T08:53:34.832Z,43.73
2023-04-19T08:58:46.677Z,42.66
2023-04-19T09:01:34.970Z,45.61
2023-04-19T09:04:26.365Z,46.74
2023-04-19T09:06:54.108Z,45.99
2023-04-19T09:09:36.642Z,44.15
2023-04-19T09:12:17.600Z,44.45
2023-04-19T09:14:59.767Z,44.92
2023-04-19T09:17:31.179Z,44.81
2023-04-19T09:19:59.987Z,45.60
2023-04-19T09:22:28.328Z,45.81
2023-04-19T09:27:30.027Z,46.56
2023-04-19T09:29:59.706Z,46.46
2023-04-19T09:33:00.352Z,44.96
2023-04-19T09:35:31.679Z,43.97
2023-04-19T09:38:06.372Z,45.51
2023-04-19T09:40:35.669Z,43.57
2023-04-19T09:43:17.897Z,41.82
2023-04-19T09:45:52.757Z,44.91
2023-04-19T09:48:24.346Z,44.43
2023-04-19T09:50:59.600Z,46.91
2023-04-19T09:53:34.301Z,48.31
2023-04-19T09:56:03.900Z,47.55
2023-04-19T10:01:14.386Z,46.78
2023-04-19T10:03:46.360Z,44.53
2023-04-19T10:06:35.974Z,46.69
2023-04-19T10:09:06.344Z,45.13
2023-04-19T10:11:38.789Z,45.23
2023-04-19T10:14:09.170Z,46.73
2023-04-19T10:16:38.734Z,45.86
2023-04-19T10:19:10.537Z,47.35
2023-04-19T10:21:39.113Z,47.16
2023-04-19T10:24:08.294Z,46.49
2023-04-19T10:27:07.844Z,48.06
2023-04-19T10:29:58.266Z,46.76
2023-04-19T10:32:28.753Z,47.32
2023-04-19T10:34:58.220Z,50.24
2023-04-19T10:37:27.367Z,54.06
2023-04-19T10:39:56.145Z,66.26
2023-04-19T10:42:24.396Z,93.21
2023-04-19T10:45:34.814Z,100.00
2023-04-19T10:48:04.489Z,100.00
2023-04-19T10:50:58.724Z,100.00
2023-04-19T10:54:00.479Z,100.00
2023-04-19T10:57:00.584Z,100.00
2023-04-19T10:59:31.127Z,100.00
2023-04-19T11:02:01.082Z,100.00
2023-04-19T11:05:04.242Z,100.00
2023-04-19T11:07:41.867Z,100.00
2023-04-19T11:10:11.803Z,100.00
2023-04-19T11:12:44.228Z,100.00
2023-04-19T11:15:12.962Z,100.00
2023-04-19T11:17:42.589Z,100.00
2023-04-19T11:20:12.728Z,100.00
2023-04-19T11:22:43.465Z,100.00
2023-04-19T11:25:13.477Z,100.00
2023-04-19T11:27:43.019Z,100.00
2023-04-19T11:30:12.976Z,100.00
2023-04-19T11:32:47.080Z,100.00
2023-04-19T11:35:16.227Z,100.00
2023-04-19T11:37:46.314Z,100.00
2023-04-19T11:40:16.172Z,100.00
2023-04-19T11:42:44.506Z,100.00
2023-04-19T11:45:25.804Z,100.00
2023-04-19T11:47:57.881Z,100.00
2023-04-19T11:50:37.132Z,100.00
2023-04-19T11:53:15.514Z,100.00
2023-04-19T11:55:45.420Z,100.00
2023-04-19T11:58:29.608Z,100.00
2023-04-19T12:01:00.862Z,100.00
2023-04-19T12:03:29.546Z,100.00
2023-04-19T12:05:58.953Z,100.00
2023-04-19T12:08:36.606Z,100.00
2023-04-19T12:11:06.361Z,100.00
2023-04-19T12:13:36.421Z,100.00
2023-04-19T12:16:05.181Z,100.00
2023-04-19T12:18:48.755Z,100.00
2023-04-19T12:21:27.376Z,100.00
2023-04-19T12:23:58.341Z,100.00
2023-04-19T12:26:28.235Z,100.00
2023-04-19T12:28:56.853Z,100.00
2023-04-19T12:31:25.369Z,100.00
2023-04-19T12:33:53.805Z,100.00
2023-04-19T12:36:22.339Z,100.00
2023-04-19T12:38:50.673Z,100.00
2023-04-19T12:41:21.146Z,100.00
2023-04-19T12:46:35.299Z,95.71
2023-04-19T12:49:03.587Z,100.00
2023-04-19T12:51:32.848Z,90.58
2023-04-19T12:54:02.478Z,100.00
2023-04-19T12:56:32.140Z,86.79
2023-04-19T12:59:00.379Z,87.00
2023-04-19T13:01:28.817Z,91.93
2023-04-19T13:03:59.354Z,92.24
2023-04-19T13:06:28.236Z,88.19
2023-04-19T13:09:00.377Z,94.98
2023-04-19T13:11:29.674Z,97.60
2023-04-19T13:13:59.307Z,100.00
2023-04-19T13:16:27.756Z,100.00
2023-04-19T13:18:56.068Z,100.00
2023-04-19T13:21:24.588Z,100.00
2023-04-19T13:23:53.313Z,100.00
2023-04-19T13:26:21.685Z,100.00
2023-04-19T13:28:50.112Z,100.00
2023-04-19T13:31:19.879Z,100.00
2023-04-19T13:33:48.202Z,100.00
2023-04-19T13:36:16.529Z,100.00
2023-04-19T13:38:45.030Z,100.00
2023-04-19T13:41:13.420Z,100.00
2023-04-19T13:43:41.767Z,100.00
2023-04-19T13:46:10.193Z,100.00
2023-04-19T13:48:39.795Z,100.00
2023-04-19T13:51:08.511Z,100.00
2023-04-19T13:53:36.817Z,100.00
2023-04-19T13:56:09.161Z,100.00
2023-04-19T13:58:37.505Z,100.00
2023-04-19T14:01:06.087Z,100.00
2023-04-19T14:03:34.521Z,100.00
2023-04-19T14:06:04.651Z,100.00
2023-04-19T14:08:32.934Z,100.00
2023-04-19T14:11:01.276Z,100.00
2023-04-19T14:13:29.582Z,100.00
2023-04-19T14:15:57.871Z,100.00
2023-04-19T14:18:26.456Z,100.00
2023-04-19T14:20:54.847Z,100.00
2023-04-19T14:23:24.509Z,100.00
2023-04-19T14:25:52.751Z,100.00
2023-04-19T14:28:20.976Z,100.00
2023-04-19T14:30:49.308Z,100.00
2023-04-19T14:33:17.577Z,100.00
2023-04-19T14:35:45.925Z,100.00
2023-04-19T14:38:14.177Z,100.00
2023-04-19T14:40:43.836Z,100.00
2023-04-19T14:43:13.270Z,100.00
2023-04-19T14:45:41.538Z,100.00
2023-04-19T14:48:09.885Z,100.00
2023-04-19T14:50:38.348Z,100.00
2023-04-19T14:53:06.593Z,100.00
2023-04-19T14:55:34.877Z,100.00
2023-04-19T14:58:04.595Z,100.00
2023-04-19T15:00:33.002Z,100.00
2023-04-19T15:03:02.518Z,100.00
2023-04-19T15:05:31.163Z,100.00
2023-04-19T15:07:59.626Z,100.00
2023-04-19T15:10:27.933Z,100.00
2023-04-19T15:12:56.264Z,100.00
2023-04-19T15:15:25.941Z,100.00
2023-04-19T15:17:54.250Z,100.00
2023-04-19T15:20:22.556Z,100.00
2023-04-19T15:22:50.806Z,100.00
2023-04-19T15:25:19.109Z,97.39
2023-04-19T15:27:47.343Z,100.00
2023-04-19T15:30:17.789Z,100.00
2023-04-19T15:32:47.936Z,100.00
2023-04-19T15:35:16.176Z,100.00
2023-04-19T15:37:44.537Z,100.00
2023-04-19T15:40:14.455Z,100.00
2023-04-19T15:42:42.666Z,100.00
2023-04-19T15:45:11.717Z,100.00
2023-04-19T15:47:40.703Z,100.00
2023-04-19T15:50:10.615Z,100.00
2023-04-19T15:52:38.864Z,100.00
2023-04-19T15:55:07.439Z,100.00
2023-04-19T15:57:36.621Z,100.00
2023-04-19T16:00:09.249Z,95.82
2023-04-19T16:02:37.700Z,98.73
2023-04-19T16:05:06.861Z,95.07
2023-04-19T16:07:38.218Z,95.99
2023-04-19T16:10:08.107Z,92.56
2023-04-19T16:12:36.489Z,88.10
2023-04-19T16:15:05.810Z,94.24
2023-04-19T16:17:34.109Z,94.55
2023-04-19T16:20:02.396Z,88.17
2023-04-19T16:22:30.687Z,82.47
2023-04-19T16:25:00.398Z,81.56
2023-04-19T16:27:28.656Z,84.37
2023-04-19T16:29:56.923Z,87.85
2023-04-19T16:32:25.387Z,91.45
2023-04-19T16:34:53.773Z,87.11
2023-04-19T16:37:22.101Z,79.89
2023-04-19T16:39:50.407Z,83.54
2023-04-19T16:42:20.023Z,85.42
2023-04-19T16:44:48.301Z,84.83
2023-04-19T16:47:16.812Z,83.18
2023-04-19T16:49:47.291Z,81.92
2023-04-19T16:52:15.609Z,81.96
2023-04-19T16:54:44.746Z,78.54
2023-04-19T16:57:13.067Z,78.89
2023-04-19T16:59:42.695Z,84.50
2023-04-19T17:02:11.183Z,86.77
2023-04-19T17:04:39.847Z,76.46
2023-04-19T17:07:08.891Z,72.36
2023-04-19T17:09:37.278Z,79.73
2023-04-19T17:12:06.461Z,79.61
2023-04-19T17:14:35.440Z,81.39
2023-04-19T17:17:05.069Z,73.92
2023-04-19T17:19:33.337Z,74.32
2023-04-19T17:22:05.251Z,74.57
2023-04-19T17:24:34.365Z,79.33
2023-04-19T17:27:02.802Z,78.04
2023-04-19T17:29:31.143Z,67.58
2023-04-19T17:32:00.171Z,64.00
2023-04-19T17:34:29.774Z,62.91
2023-04-19T17:36:58.122Z,60.35
2023-04-19T17:39:27.947Z,62.20
2023-04-19T17:41:56.368Z,64.17
2023-04-19T17:44:25.327Z,59.40
2023-04-19T17:46:53.958Z,59.46
2023-04-19T17:49:22.330Z,64.20
2023-04-19T17:51:53.112Z,61.12
2023-04-19T17:54:21.467Z,59.11
2023-04-19T17:56:49.939Z,62.19
2023-04-19T17:59:18.316Z,61.68
2023-04-19T18:01:46.895Z,60.68
2023-04-19T18:04:18.024Z,60.80
2023-04-19T18:06:46.763Z,59.83
2023-04-19T18:09:17.783Z,62.44
2023-04-19T18:11:47.672Z,58.91
2023-04-19T18:14:16.319Z,59.87
2023-04-19T18:16:44.629Z,59.31
2023-04-19T18:19:12.928Z,57.31
2023-04-19T18:21:41.248Z,61.81
2023-04-19T18:24:09.968Z,60.68
2023-04-19T18:26:41.376Z,58.07
2023-04-19T18:29:09.992Z,59.01
2023-04-19T18:31:38.395Z,56.29
2023-04-19T18:34:06.645Z,59.53
2023-04-19T18:36:35.021Z,57.90
2023-04-19T18:39:03.530Z,58.56
2023-04-19T18:41:31.804Z,58.00
2023-04-19T18:46:32.626Z,61.34
2023-04-19T18:49:01.127Z,66.06
2023-04-19T18:51:29.437Z,65.01
2023-04-19T18:53:57.665Z,65.42
2023-04-19T18:57:04.398Z,62.34
2023-04-19T18:59:16.019Z,60.78
2023-04-19T19:01:45.922Z,61.29
2023-04-19T19:04:37.311Z,59.49
2023-04-19T19:07:27.390Z,59.10
2023-04-19T19:09:57.016Z,58.68
2023-04-19T19:12:25.793Z,58.52
2023-04-19T19:14:55.746Z,58.48
2023-04-19T19:17:28.133Z,57.08
2023-04-19T19:19:56.712Z,57.22
2023-04-19T19:22:28.325Z,58.72
2023-04-19T19:24:57.493Z,58.49
2023-04-19T19:27:25.908Z,56.27
2023-04-19T19:29:55.670Z,56.84
2023-04-19T19:32:24.037Z,57.04
2023-04-19T19:34:56.689Z,57.95
2023-04-19T19:37:29.084Z,57.00
2023-04-19T19:39:57.326Z,58.94
2023-04-19T19:42:25.777Z,60.71
2023-04-19T19:44:55.912Z,59.35
2023-04-19T19:47:25.040Z,60.80
2023-04-19T19:50:43.622Z,61.14
2023-04-19T19:52:44.733Z,63.04
2023-04-19T19:55:13.861Z,66.41
2023-04-19T20:05:21.751Z,66.36
2023-04-19T20:10:22.417Z,65.70
2023-04-19T20:12:51.929Z,65.70
2023-04-19T20:15:22.581Z,63.37
2023-04-19T20:17:50.740Z,64.27
2023-04-19T20:20:19.137Z,64.06
2023-04-19T20:22:47.863Z,63.51
2023-04-19T20:25:16.590Z,62.62
2023-04-19T20:27:44.973Z,63.62
2023-04-19T20:30:14.331Z,63.97
2023-04-19T20:32:44.109Z,65.47
2023-04-19T20:35:12.871Z,68.94
2023-04-19T20:37:41.188Z,66.43
2023-04-19T20:40:12.085Z,63.76
2023-04-19T20:42:40.471Z,63.12
2023-04-19T20:45:10.869Z,61.50
2023-04-19T20:47:39.447Z,63.28
2023-04-19T20:50:10.157Z,63.03
2023-04-19T20:52:38.247Z,62.08
2023-04-19T20:55:07.334Z,63.53
2023-04-19T20:57:35.597Z,60.09
2023-04-19T21:00:04.801Z,61.26
2023-04-19T21:02:33.222Z,63.15
2023-04-19T21:05:01.605Z,62.69
2023-04-19T21:07:31.186Z,66.26
2023-04-19T21:09:59.423Z,67.07
2023-04-19T21:12:27.658Z,67.89
2023-04-19T21:14:55.897Z,70.28
2023-04-19T21:17:24.187Z,68.21
2023-04-19T21:19:52.500Z,69.01
2023-04-19T21:22:20.783Z,66.99
2023-04-19T21:24:50.392Z,69.06
2023-04-19T21:27:18.752Z,65.97
2023-04-19T21:29:47.068Z,66.89
2023-04-19T21:32:15.370Z,66.30
2023-04-19T21:34:44.851Z,66.90
2023-04-19T21:37:13.136Z,67.01
2023-04-19T21:39:41.369Z,66.04
2023-04-19T21:42:11.328Z,65.17
2023-04-19T21:44:39.550Z,66.42
2023-04-19T21:47:07.798Z,67.85
2023-04-19T21:49:36.184Z,66.88
2023-04-19T21:52:04.829Z,66.32
2023-04-19T21:54:34.267Z,65.50
2023-04-19T21:57:03.111Z,70.00
2023-04-19T21:59:35.953Z,67.31
2023-04-19T22:02:04.761Z,68.63
2023-04-19T22:04:33.182Z,66.89
2023-04-19T22:07:02.748Z,67.46
2023-04-19T22:09:31.548Z,66.45
2023-04-19T22:12:01.641Z,68.41
2023-04-19T22:14:30.859Z,67.71
2023-04-19T22:17:02.664Z,65.97
2023-04-19T22:19:31.624Z,66.22
2023-04-19T22:21:59.955Z,66.35
2023-04-19T22:24:28.229Z,66.37
2023-04-19T22:26:57.450Z,66.75
2023-04-19T22:29:26.013Z,70.36
2023-04-19T22:31:54.303Z,69.87
2023-04-19T22:34:23.924Z,69.58
2023-04-19T22:36:52.151Z,67.81
2023-04-19T22:39:20.755Z,67.00
2023-04-19T22:41:49.468Z,70.64
2023-04-19T22:44:17.720Z,69.74
2023-04-19T22:46:46.069Z,66.60
2023-04-19T22:49:14.511Z,66.50
2023-04-19T22:51:45.205Z,66.80
2023-04-19T22:54:13.325Z,66.74
2023-04-19T22:56:41.547Z,67.22
2023-04-19T22:59:09.820Z,64.68
2023-04-19T23:01:38.128Z,64.18
2023-04-19T23:04:06.495Z,62.88
2023-04-19T23:06:36.888Z,62.75
2023-04-19T23:09:06.610Z,62.32
2023-04-19T23:11:34.908Z,62.08
2023-04-19T23:14:03.961Z,61.50
2023-04-19T23:16:33.371Z,61.72
2023-04-19T23:19:01.703Z,63.75
2023-04-19T23:21:30.092Z,64.37
2023-04-19T23:23:58.519Z,62.97
2023-04-19T23:26:28.227Z,62.05
2023-04-19T23:28:56.489Z,64.21
2023-04-19T23:31:24.827Z,62.53
2023-04-19T23:33:53.098Z,62.03
2023-04-19T23:36:21.495Z,62.35
2023-04-19T23:38:49.742Z,61.92
2023-04-19T23:41:18.037Z,61.86
2023-04-19T23:43:47.886Z,60.92
2023-04-19T23:46:16.290Z,60.52
2023-04-19T23:48:44.538Z,65.53
2023-04-19T23:51:13.357Z,70.46
2023-04-19T23:53:41.684Z,63.54
2023-04-19T23:56:09.919Z,63.12
2023-04-19T23:58:38.231Z,63.45
